createdAt,value
2023-05-12T00:01:20.009Z,101207.06
2023-05-12T00:03:21.856Z,101205.22
2023-05-12T00:05:24.007Z,101204.22
2023-05-12T00:07:25.736Z,101202.25
2023-05-12T00:09:27.813Z,101203.78
2023-05-12T00:11:29.676Z,101207.34
2023-05-12T00:13:31.512Z,101213.69
2023-05-12T00:15:33.072Z,101202.94
2023-05-12T00:17:34.721Z,101209.31
2023-05-12T00:19:36.633Z,101204.06
2023-05-12T00:21:38.292Z,101207.63
2023-05-12T00:23:40.358Z,101203.38
2023-05-12T00:25:41.938Z,101206.75
2023-05-12T00:27:43.735Z,101205.78
2023-05-12T00:29:45.360Z,101206.47
2023-05-12T00:31:46.998Z,101203.66
2023-05-12T00:33:48.588Z,101208.03
2023-05-12T00:35:50.297Z,101204.38
2023-05-12T00:37:51.932Z,101209.75
2023-05-12T00:39:53.561Z,101207.06
2023-05-12T00:41:58.869Z,101206.34
2023-05-12T00:44:00.447Z,101201.97
2023-05-12T00:46:04.949Z,101210.88
2023-05-12T00:48:06.829Z,101208.19
2023-05-12T00:50:08.738Z,101206.34
2023-05-12T00:52:10.384Z,101211.44
2023-05-12T00:54:12.429Z,101205.91
2023-05-12T00:56:16.778Z,101207.47
2023-05-12T00:58:18.336Z,101198.53
2023-05-12T01:00:20.415Z,101206.63
2023-05-12T01:02:22.894Z,101201.22
2023-05-12T01:04:24.618Z,101205.78
2023-05-12T01:06:31.723Z,101199.56
2023-05-12T01:08:33.336Z,101200.69
2023-05-12T01:10:36.059Z,101204.22
2023-05-12T01:12:37.883Z,101201.53
2023-05-12T01:14:39.811Z,101199.56
2023-05-12T01:16:46.363Z,101199.25
2023-05-12T01:18:53.133Z,101201.06
2023-05-12T01:20:56.428Z,101201.06
2023-05-12T01:22:58.632Z,101198.25
2023-05-12T01:25:04.200Z,101204.78
2023-05-12T01:27:06.181Z,101202.63
2023-05-12T01:29:07.820Z,101201.06
2023-05-12T01:31:09.640Z,101206.34
2023-05-12T01:33:11.368Z,101198.53
2023-05-12T01:35:13.072Z,101198.69
2023-05-12T01:37:14.744Z,101206.78
2023-05-12T01:39:16.591Z,101205.63
2023-05-12T01:41:18.155Z,101207.34
2023-05-12T01:43:22.012Z,101208.88
2023-05-12T01:45:23.786Z,101208.88
2023-05-12T01:47:25.713Z,101210.63
2023-05-12T01:49:27.625Z,101200.78
2023-05-12T01:51:29.410Z,101200.94
2023-05-12T01:53:30.975Z,101204.66
2023-05-12T01:55:35.137Z,101197.53
2023-05-12T01:57:36.784Z,101197.53
2023-05-12T01:59:38.349Z,101201.22
2023-05-12T02:01:40.025Z,101199.38
2023-05-12T02:03:41.806Z,101206.34
2023-05-12T02:05:43.662Z,101207.09
2023-05-12T02:07:45.251Z,101196.16
2023-05-12T02:09:47.326Z,101203.09
2023-05-12T02:11:49.388Z,101210.34
2023-05-12T02:13:51.173Z,101204.09
2023-05-12T02:15:52.824Z,101207.75
2023-05-12T02:17:55.329Z,101211.47
2023-05-12T02:19:57.002Z,101203.47
2023-05-12T02:21:58.609Z,101201.78
2023-05-12T02:24:00.265Z,101203.63
2023-05-12T02:26:01.926Z,101202.63
2023-05-12T02:28:04.723Z,101196.31
2023-05-12T02:30:06.851Z,101194.31
2023-05-12T02:32:08.865Z,101200.41
2023-05-12T02:34:10.568Z,101199.41
2023-05-12T02:36:12.122Z,101199.41
2023-05-12T02:38:13.767Z,101195.88
2023-05-12T02:40:16.016Z,101192.34
2023-05-12T02:42:17.830Z,101198.72
2023-05-12T02:44:22.222Z,101193.47
2023-05-12T02:46:24.033Z,101192.72
2023-05-12T02:48:25.703Z,101191.88
2023-05-12T02:50:27.323Z,101193.63
2023-05-12T02:52:28.984Z,101194.31
2023-05-12T02:54:30.961Z,101208.47
2023-05-12T02:56:33.945Z,101197.84
2023-05-12T02:58:35.748Z,101200.25
2023-05-12T03:00:37.508Z,101201.09
2023-05-12T03:02:39.536Z,101201.97
2023-05-12T03:04:41.311Z,101198.56
2023-05-12T03:06:42.873Z,101193.91
2023-05-12T03:08:44.984Z,101202.09
2023-05-12T03:10:46.694Z,101192.47
2023-05-12T03:12:48.535Z,101197.00
2023-05-12T03:14:51.434Z,101198.72
2023-05-12T03:16:53.197Z,101198.56
2023-05-12T03:18:55.111Z,101193.91
2023-05-12T03:20:56.717Z,101192.06
2023-05-12T03:22:58.316Z,101201.81
2023-05-12T03:24:59.840Z,101202.53
2023-05-12T03:27:01.391Z,101196.31
2023-05-12T03:29:04.162Z,101199.97
2023-05-12T03:31:05.948Z,101196.59
2023-05-12T03:33:07.847Z,101202.94
2023-05-12T03:35:09.491Z,101198.56
2023-05-12T03:37:11.058Z,101191.34
2023-05-12T03:39:13.009Z,101194.88
2023-05-12T03:41:14.703Z,101196.59
2023-05-12T03:43:16.356Z,101192.91
2023-05-12T03:45:17.974Z,101190.91
2023-05-12T03:47:19.841Z,101190.91
2023-05-12T03:49:21.756Z,101199.00
2023-05-12T03:51:23.304Z,101202.53
2023-05-12T03:53:24.937Z,101194.59
2023-05-12T03:55:26.657Z,101198.13
2023-05-12T03:57:28.252Z,101204.50
2023-05-12T03:59:32.858Z,101201.97
2023-05-12T04:01:34.454Z,101198.41
2023-05-12T04:03:36.179Z,101208.19
2023-05-12T04:05:39.558Z,101196.59
2023-05-12T04:07:41.269Z,101204.38
2023-05-12T04:09:43.992Z,101204.22
2023-05-12T04:11:45.851Z,101202.38
2023-05-12T04:13:47.426Z,101209.47
2023-05-12T04:15:49.355Z,101207.75
2023-05-12T04:17:51.089Z,101208.75
2023-05-12T04:19:53.538Z,101202.53
2023-05-12T04:21:55.305Z,101204.38
2023-05-12T04:23:56.950Z,101203.50
2023-05-12T04:25:58.563Z,101202.66
2023-05-12T04:28:00.241Z,101201.69
2023-05-12T04:30:02.010Z,101203.38
2023-05-12T04:32:04.045Z,101200.53
2023-05-12T04:34:05.727Z,101200.53
2023-05-12T04:36:07.701Z,101210.44
2023-05-12T04:38:09.482Z,101205.06
2023-05-12T04:40:11.405Z,101206.06
2023-05-12T04:42:12.951Z,101208.75
2023-05-12T04:44:14.743Z,101203.38
2023-05-12T04:46:16.537Z,101205.34
2023-05-12T04:48:18.089Z,101216.00
2023-05-12T04:50:19.721Z,101216.81
2023-05-12T04:52:23.105Z,101210.59
2023-05-12T04:54:26.414Z,101216.66
2023-05-12T04:56:28.069Z,101216.53
2023-05-12T04:58:29.692Z,101214.53
2023-05-12T05:00:31.454Z,101215.69
2023-05-12T05:02:33.125Z,101221.09
2023-05-12T05:04:34.740Z,101222.94
2023-05-12T05:06:36.494Z,101226.59
2023-05-12T05:08:38.325Z,101233.81
2023-05-12T05:10:39.935Z,101231.41
2023-05-12T05:12:41.547Z,101228.88
2023-05-12T05:14:43.085Z,101234.94
2023-05-12T05:16:45.792Z,101236.66
2023-05-12T05:18:47.449Z,101234.66
2023-05-12T05:22:52.234Z,101236.38
2023-05-12T05:24:53.851Z,101234.38
2023-05-12T05:26:55.486Z,101233.53
2023-05-12T05:28:57.517Z,101239.91
2023-05-12T05:30:59.383Z,101232.81
2023-05-12T05:33:01.227Z,101240.88
2023-05-12T05:35:03.134Z,101235.50
2023-05-12T05:37:04.865Z,101241.75
2023-05-12T05:39:06.663Z,101240.03
2023-05-12T05:41:08.656Z,101248.69
2023-05-12T05:43:10.432Z,101239.63
2023-05-12T05:45:12.065Z,101239.63
2023-05-12T05:47:13.753Z,101245.00
2023-05-12T05:49:15.398Z,101246.13
2023-05-12T05:51:17.013Z,101239.75
2023-05-12T05:53:19.691Z,101247.00
2023-05-12T05:55:22.214Z,101245.31
2023-05-12T05:57:23.999Z,101240.88
2023-05-12T05:59:25.863Z,101247.16
2023-05-12T06:01:27.471Z,101246.28
2023-05-12T06:03:29.538Z,101240.88
2023-05-12T06:05:31.211Z,101243.44
2023-05-12T06:07:33.133Z,101249.53
2023-05-12T06:09:34.767Z,101245.00
2023-05-12T06:11:36.349Z,101241.31
2023-05-12T06:13:38.041Z,101246.53
2023-05-12T06:15:39.700Z,101246.69
2023-05-12T06:17:41.353Z,101242.16
2023-05-12T06:19:47.604Z,101238.63
2023-05-12T06:21:49.213Z,101235.22
2023-05-12T06:23:51.590Z,101245.13
2023-05-12T06:25:53.227Z,101240.75
2023-05-12T06:27:54.757Z,101248.56
2023-05-12T06:29:56.445Z,101247.53
2023-05-12T06:31:58.155Z,101244.72
2023-05-12T06:33:59.783Z,101250.09
2023-05-12T06:36:01.450Z,101246.53
2023-05-12T06:38:02.988Z,101243.72
2023-05-12T06:40:05.228Z,101250.25
2023-05-12T06:42:07.151Z,101248.38
2023-05-12T06:44:12.624Z,101250.25
2023-05-12T06:46:14.529Z,101252.22
2023-05-12T06:48:16.087Z,101251.25
2023-05-12T06:50:18.035Z,101261.84
2023-05-12T06:52:20.854Z,101247.53
2023-05-12T06:54:22.480Z,101250.97
2023-05-12T06:56:24.228Z,101259.72
2023-05-12T06:58:25.789Z,101258.59
2023-05-12T07:00:27.553Z,101255.88
2023-05-12T07:02:30.332Z,101255.03
2023-05-12T07:04:32.048Z,101250.66
2023-05-12T07:06:34.501Z,101260.28
2023-05-12T07:08:36.033Z,101252.78
2023-05-12T07:10:38.255Z,101250.09
2023-05-12T07:12:40.013Z,101252.50
2023-05-12T07:14:41.630Z,101249.81
2023-05-12T07:16:43.316Z,101252.63
2023-05-12T07:18:45.535Z,101251.63
2023-05-12T07:20:47.362Z,101251.06
2023-05-12T07:22:49.270Z,101252.91
2023-05-12T07:24:51.001Z,101245.97
2023-05-12T07:26:52.586Z,101245.13
2023-05-12T07:28:54.182Z,101250.38
2023-05-12T07:30:55.786Z,101240.88
2023-05-12T07:32:57.866Z,101249.94
2023-05-12T07:34:59.615Z,101241.03
2023-05-12T07:37:02.429Z,101242.16
2023-05-12T07:39:03.997Z,101246.53
2023-05-12T07:41:05.606Z,101244.00
2023-05-12T07:43:08.025Z,101240.75
2023-05-12T07:45:10.076Z,101235.50
2023-05-12T07:47:11.882Z,101240.03
2023-05-12T07:49:13.458Z,101245.31
2023-05-12T07:51:15.031Z,101239.06
2023-05-12T07:53:16.648Z,101240.88
2023-05-12T07:55:19.972Z,101231.13
2023-05-12T07:57:21.851Z,101241.16
2023-05-12T07:59:23.465Z,101236.22
2023-05-12T08:01:25.102Z,101239.38
2023-05-12T08:03:26.688Z,101239.38
2023-05-12T08:05:28.580Z,101239.38
2023-05-12T08:07:30.504Z,101241.16
2023-05-12T08:09:32.078Z,101243.75
2023-05-12T08:11:33.698Z,101238.47
2023-05-12T08:13:36.963Z,101244.59
2023-05-12T08:15:40.188Z,101242.16
2023-05-12T08:17:41.966Z,101243.16
2023-05-12T08:19:43.913Z,101244.44
2023-05-12T08:21:45.674Z,101241.16
2023-05-12T08:23:47.305Z,101245.97
2023-05-12T08:25:52.587Z,101248.81
2023-05-12T08:27:54.290Z,101243.00
2023-05-12T08:29:55.989Z,101248.66
2023-05-12T08:31:58.242Z,101252.78
2023-05-12T08:34:09.672Z,101248.66
2023-05-12T08:36:12.688Z,101261.41
2023-05-12T08:38:14.386Z,101262.53
2023-05-12T08:40:21.410Z,101260.25
2023-05-12T08:42:42.958Z,101263.91
2023-05-12T08:44:44.820Z,101259.09
2023-05-12T08:46:48.027Z,101264.63
2023-05-12T08:48:50.796Z,101264.75
2023-05-12T08:50:53.765Z,101261.50
2023-05-12T08:52:56.143Z,101256.66
2023-05-12T08:54:59.471Z,101261.59
2023-05-12T08:59:09.204Z,101262.72
2023-05-12T09:01:11.716Z,101260.28
2023-05-12T09:03:14.676Z,101266.25
2023-05-12T09:05:16.304Z,101271.88
2023-05-12T09:07:24.332Z,101264.66
2023-05-12T09:09:28.343Z,101270.88
2023-05-12T09:11:30.050Z,101268.63
2023-05-12T09:13:37.792Z,101275.97
2023-05-12T09:15:42.427Z,101274.53
2023-05-12T09:17:44.189Z,101269.16
2023-05-12T09:19:45.922Z,101270.84
2023-05-12T09:21:48.287Z,101272.00
2023-05-12T09:23:58.666Z,101269.59
2023-05-12T09:26:04.019Z,101273.41
2023-05-12T09:28:05.624Z,101268.41
2023-05-12T09:30:08.245Z,101271.50
2023-05-12T09:32:09.953Z,101274.94
2023-05-12T09:34:11.932Z,101274.94
2023-05-12T09:36:18.510Z,101267.72
2023-05-12T09:38:20.248Z,101264.56
2023-05-12T09:40:21.878Z,101270.22
2023-05-12T09:42:24.581Z,101265.00
2023-05-12T09:44:26.608Z,101272.31
2023-05-12T09:46:28.235Z,101264.00
2023-05-12T09:48:30.379Z,101278.00
2023-05-12T09:50:40.935Z,101272.63
2023-05-12T09:52:51.209Z,101268.09
2023-05-12T09:54:52.875Z,101273.47
2023-05-12T09:56:58.626Z,101268.25
2023-05-12T09:59:02.525Z,101271.50
2023-05-12T10:03:15.707Z,101267.13
2023-05-12T10:05:20.794Z,101262.72
2023-05-12T10:07:27.048Z,101265.41
2023-05-12T10:09:34.320Z,101262.72
2023-05-12T10:11:36.030Z,101262.03
2023-05-12T10:13:38.818Z,101262.16
2023-05-12T10:15:41.374Z,101263.00
2023-05-12T10:17:43.777Z,101260.59
2023-05-12T10:19:46.547Z,101276.13
2023-05-12T10:21:48.923Z,101263.56
2023-05-12T10:23:51.097Z,101258.59
2023-05-12T10:25:54.136Z,101264.09
2023-05-12T10:27:56.492Z,101257.84
2023-05-12T10:29:58.632Z,101260.94
2023-05-12T10:32:03.658Z,101258.16
2023-05-12T10:34:06.073Z,101261.81
2023-05-12T10:36:19.729Z,101260.94
2023-05-12T10:38:21.643Z,101255.72
2023-05-12T10:40:25.550Z,101259.13
2023-05-12T10:42:27.846Z,101254.47
2023-05-12T10:44:29.597Z,101251.06
2023-05-12T10:46:31.384Z,101256.44
2023-05-12T10:48:33.461Z,101253.16
2023-05-12T10:50:35.173Z,101249.75
2023-05-12T10:52:36.752Z,101256.13
2023-05-12T10:54:44.392Z,101259.91
2023-05-12T10:56:46.723Z,101261.13
2023-05-12T10:59:07.362Z,101247.13
2023-05-12T11:01:09.406Z,101257.56
2023-05-12T11:03:17.490Z,101250.75
2023-05-12T11:05:20.682Z,101251.59
2023-05-12T11:07:30.569Z,101250.88
2023-05-12T11:09:36.696Z,101248.59
2023-05-12T11:11:40.465Z,101248.13
2023-05-12T11:13:43.324Z,101254.50
2023-05-12T11:15:45.177Z,101245.50
2023-05-12T11:17:49.884Z,101238.25
2023-05-12T11:19:52.579Z,101240.84
2023-05-12T11:21:55.772Z,101246.16
2023-05-12T11:23:57.703Z,101244.34
2023-05-12T11:25:59.769Z,101237.06
2023-05-12T11:28:01.565Z,101245.25
2023-05-12T11:30:04.403Z,101243.59
2023-05-12T11:32:06.266Z,101236.56
2023-05-12T11:34:13.062Z,101230.59
2023-05-12T11:36:17.224Z,101230.72
2023-05-12T11:38:19.546Z,101230.00
2023-05-12T11:40:22.295Z,101226.09
2023-05-12T11:42:25.913Z,101227.78
2023-05-12T11:44:27.637Z,101231.19
2023-05-12T11:46:30.126Z,101220.28
2023-05-12T11:48:34.506Z,101225.66
2023-05-12T11:50:40.655Z,101219.72
2023-05-12T11:52:42.375Z,101226.94
2023-05-12T11:54:57.490Z,101220.28
2023-05-12T11:56:59.436Z,101218.03
2023-05-12T11:59:01.142Z,101218.88
2023-05-12T12:01:12.649Z,101224.38
2023-05-12T12:03:15.558Z,101211.63
2023-05-12T12:05:18.682Z,101217.00
2023-05-12T12:07:34.263Z,101214.88
2023-05-12T12:09:36.747Z,101222.47
2023-05-12T12:11:38.468Z,101227.50
2023-05-12T12:13:48.634Z,101221.56
2023-05-12T12:15:50.855Z,101224.13
2023-05-12T12:17:52.714Z,101227.38
2023-05-12T12:19:54.260Z,101231.03
2023-05-12T12:21:57.117Z,101231.91
2023-05-12T12:23:58.904Z,101230.47
2023-05-12T12:26:00.594Z,101236.72
2023-05-12T12:28:03.786Z,101229.78
2023-05-12T12:30:05.953Z,101234.38
2023-05-12T12:32:08.939Z,101230.97
2023-05-12T12:34:10.777Z,101237.06
2023-05-12T12:36:12.411Z,101231.09
2023-05-12T12:38:14.652Z,101238.06
2023-05-12T12:40:16.231Z,101236.94
2023-05-12T12:42:17.756Z,101227.16
2023-05-12T12:44:19.567Z,101237.06
2023-05-12T12:46:23.978Z,101233.56
2023-05-12T12:48:28.366Z,101237.78
2023-05-12T12:50:30.326Z,101236.66
2023-05-12T12:52:32.758Z,101229.06
2023-05-12T12:54:34.664Z,101234.44
2023-05-12T12:56:36.409Z,101231.19
2023-05-12T12:58:38.052Z,101224.50
2023-05-12T13:00:39.684Z,101228.75
2023-05-12T13:02:41.487Z,101233.41
2023-05-12T13:04:43.458Z,101234.25
2023-05-12T13:06:45.343Z,101228.50
2023-05-12T13:08:47.572Z,101224.41
2023-05-12T13:10:49.261Z,101216.84
2023-05-12T13:12:50.998Z,101228.28
2023-05-12T13:14:52.856Z,101224.47
2023-05-12T13:16:54.603Z,101221.25
2023-05-12T13:18:56.332Z,101223.81
2023-05-12T13:20:58.307Z,101220.97
2023-05-12T13:22:59.848Z,101221.97
2023-05-12T13:25:02.103Z,101228.03
2023-05-12T13:27:08.133Z,101233.56
2023-05-12T13:29:09.863Z,101226.63
2023-05-12T13:31:11.651Z,101235.25
2023-05-12T13:33:13.456Z,101230.72
2023-05-12T13:35:15.115Z,101234.16
2023-05-12T13:37:16.709Z,101233.03
2023-05-12T13:39:19.692Z,101231.03
2023-05-12T13:41:21.521Z,101228.66
2023-05-12T13:43:23.241Z,101229.22
2023-05-12T13:45:25.245Z,101222.41
2023-05-12T13:47:27.835Z,101216.50
2023-05-12T13:49:29.463Z,101215.25
2023-05-12T13:51:32.358Z,101220.03
2023-05-12T13:53:35.166Z,101225.66
2023-05-12T13:55:40.782Z,101222.97
2023-05-12T13:57:42.583Z,101221.03
2023-05-12T13:59:44.184Z,101217.50
2023-05-12T14:01:45.919Z,101226.00
2023-05-12T14:03:47.568Z,101223.16
2023-05-12T14:05:49.124Z,101220.06
2023-05-12T14:07:50.713Z,101215.69
2023-05-12T14:09:52.514Z,101215.38
2023-05-12T14:11:54.424Z,101212.56
2023-05-12T14:13:56.047Z,101213.53
2023-05-12T14:15:58.406Z,101220.47
2023-05-12T14:18:00.158Z,101219.63
2023-05-12T14:20:02.064Z,101216.22
2023-05-12T14:22:12.503Z,101217.75
2023-05-12T14:24:20.529Z,101210.53
2023-05-12T14:26:22.516Z,101210.53
2023-05-12T14:28:24.523Z,101219.72
2023-05-12T14:30:28.947Z,101213.72
2023-05-12T14:32:30.743Z,101231.09
2023-05-12T14:34:32.380Z,101234.28
2023-05-12T14:36:33.941Z,101225.88
2023-05-12T14:38:35.899Z,101225.88
2023-05-12T14:40:39.595Z,101231.84
2023-05-12T14:42:42.317Z,101224.47
2023-05-12T14:44:44.022Z,101231.94
2023-05-12T14:46:45.566Z,101231.56
2023-05-12T14:48:48.789Z,101235.22
2023-05-12T14:50:54.782Z,101231.94
2023-05-12T14:52:56.514Z,101228.28
2023-05-12T14:54:58.258Z,101235.22
2023-05-12T14:56:59.812Z,101235.41
2023-05-12T14:59:01.462Z,101236.81
2023-05-12T15:01:03.858Z,101228.19
2023-05-12T15:03:05.755Z,101234.56
2023-05-12T15:05:08.680Z,101227.94
2023-05-12T15:07:10.402Z,101225.34
2023-05-12T15:09:12.083Z,101221.84
2023-05-12T15:11:13.850Z,101220.97
2023-05-12T15:13:18.194Z,101230.47
2023-05-12T15:15:20.323Z,101225.09
2023-05-12T15:17:22.213Z,101224.69
2023-05-12T15:19:23.780Z,101223.72
2023-05-12T15:21:25.555Z,101221.03
2023-05-12T15:23:27.264Z,101222.09
2023-05-12T15:25:29.096Z,101224.94
2023-05-12T15:27:32.862Z,101219.03
2023-05-12T15:29:38.499Z,101217.59
2023-05-12T15:31:40.404Z,101214.06
2023-05-12T15:33:42.150Z,101216.66
2023-05-12T15:35:43.922Z,101214.81
2023-05-12T15:37:45.563Z,101211.97
2023-05-12T15:39:47.272Z,101212.69
2023-05-12T15:41:50.372Z,101204.63
2023-05-12T15:43:52.480Z,101206.47
2023-05-12T15:45:54.149Z,101211.00
2023-05-12T15:47:56.664Z,101205.72
2023-05-12T15:50:00.654Z,101202.06
2023-05-12T15:52:02.580Z,101217.88
2023-05-12T15:54:05.280Z,101209.63
2023-05-12T15:56:09.029Z,101213.31
2023-05-12T15:58:11.764Z,101204.84
2023-05-12T16:00:13.907Z,101209.66
2023-05-12T16:02:15.652Z,101203.03
2023-05-12T16:04:17.415Z,101202.75
2023-05-12T16:06:19.766Z,101197.38
2023-05-12T16:08:22.147Z,101196.53
2023-05-12T16:10:23.677Z,101194.97
2023-05-12T16:12:25.380Z,101193.56
2023-05-12T16:14:27.243Z,101192.81
2023-05-12T16:16:29.989Z,101201.03
2023-05-12T16:18:32.117Z,101194.28
2023-05-12T16:20:33.896Z,101193.88
2023-05-12T16:22:35.512Z,101202.75
2023-05-12T16:24:37.389Z,101201.22
2023-05-12T16:26:39.074Z,101199.53
2023-05-12T16:28:40.742Z,101209.28
2023-05-12T16:30:42.368Z,101198.53
2023-05-12T16:32:44.302Z,101200.84
2023-05-12T16:34:46.651Z,101193.50
2023-05-12T16:36:48.789Z,101202.25
2023-05-12T16:38:51.457Z,101201.25
2023-05-12T16:40:53.067Z,101201.84
2023-05-12T16:42:54.995Z,101195.59
2023-05-12T16:44:56.765Z,101199.84
2023-05-12T16:46:58.701Z,101204.13
2023-05-12T16:49:00.370Z,101199.75
2023-05-12T16:51:07.349Z,101214.59
2023-05-12T16:53:08.954Z,101212.03
2023-05-12T16:55:11.196Z,101205.72
2023-05-12T16:57:12.979Z,101216.19
2023-05-12T16:59:14.742Z,101216.75
2023-05-12T17:01:16.391Z,101221.59
2023-05-12T17:03:18.497Z,101213.94
2023-05-12T17:05:21.233Z,101205.31
2023-05-12T17:07:23.333Z,101208.72
2023-05-12T17:09:25.050Z,101215.25
2023-05-12T17:11:27.150Z,101201.69
2023-05-12T17:13:28.806Z,101210.31
2023-05-12T17:15:30.424Z,101209.16
2023-05-12T17:17:32.617Z,101208.03
2023-05-12T17:19:34.633Z,101213.28
2023-05-12T17:21:36.403Z,101211.16
2023-05-12T17:23:38.037Z,101210.16
2023-05-12T17:25:39.715Z,101216.25
2023-05-12T17:27:41.463Z,101208.88
2023-05-12T17:29:43.003Z,101213.41
2023-05-12T17:31:44.802Z,101212.00
2023-05-12T17:33:46.483Z,101215.25
2023-05-12T17:35:59.846Z,101212.56
2023-05-12T17:38:11.584Z,101213.84
2023-05-12T17:40:17.897Z,101211.00
2023-05-12T17:42:19.604Z,101209.16
2023-05-12T17:44:21.490Z,101213.41
2023-05-12T17:46:23.180Z,101221.06
2023-05-12T17:48:26.290Z,101213.13
2023-05-12T17:50:27.927Z,101219.50
2023-05-12T17:52:29.640Z,101221.63
2023-05-12T17:54:31.528Z,101218.94
2023-05-12T17:56:33.313Z,101223.31
2023-05-12T17:58:35.250Z,101223.22
2023-05-12T18:00:36.866Z,101224.75
2023-05-12T18:02:39.348Z,101230.56
2023-05-12T18:04:41.003Z,101223.50
2023-05-12T18:06:49.888Z,101226.47
2023-05-12T18:08:52.147Z,101229.44
2023-05-12T18:10:53.735Z,101227.69
2023-05-12T18:12:55.661Z,101239.22
2023-05-12T18:14:57.519Z,101234.53
2023-05-12T18:16:59.174Z,101241.63
2023-05-12T18:19:00.888Z,101246.56
2023-05-12T18:21:02.774Z,101252.22
2023-05-12T18:23:04.517Z,101249.09
2023-05-12T18:25:06.660Z,101252.19
2023-05-12T18:27:08.297Z,101254.59
2023-05-12T18:29:10.011Z,101258.16
2023-05-12T18:33:16.199Z,101251.91
2023-05-12T18:35:18.287Z,101266.25
2023-05-12T18:37:20.055Z,101261.72
2023-05-12T18:39:22.049Z,101265.09
2023-05-12T18:41:23.636Z,101269.34
2023-05-12T18:43:25.222Z,101273.44
2023-05-12T18:45:26.954Z,101282.09
2023-05-12T18:47:28.668Z,101288.03
2023-05-12T18:49:30.668Z,101286.88
2023-05-12T18:51:32.192Z,101288.44
2023-05-12T18:53:33.929Z,101292.84
2023-05-12T18:55:35.945Z,101287.31
2023-05-12T18:57:37.822Z,101291.84
2023-05-12T18:59:39.419Z,101298.91
2023-05-12T19:01:41.113Z,101294.53
2023-05-12T19:03:42.821Z,101296.09
2023-05-12T19:05:46.317Z,101294.94
2023-05-12T19:07:48.077Z,101295.53
2023-05-12T19:09:49.752Z,101301.63
2023-05-12T19:11:51.291Z,101304.88
2023-05-12T19:13:52.945Z,101307.81
2023-05-12T19:15:54.482Z,101309.28
2023-05-12T19:17:56.277Z,101308.13
2023-05-12T19:19:57.879Z,101310.00
2023-05-12T19:21:59.561Z,101317.78
2023-05-12T19:24:01.468Z,101327.28
2023-05-12T19:26:03.220Z,101330.84
2023-05-12T19:28:05.022Z,101323.34
2023-05-12T19:30:07.632Z,101337.19
2023-05-12T19:32:09.928Z,101332.94
2023-05-12T19:34:11.625Z,101340.44
2023-05-12T19:36:13.283Z,101334.38
2023-05-12T19:38:14.969Z,101346.53
2023-05-12T19:40:16.653Z,101334.38
2023-05-12T19:42:18.265Z,101339.00
2023-05-12T19:44:19.974Z,101349.19
2023-05-12T19:46:21.979Z,101348.75
2023-05-12T19:48:23.698Z,101347.22
2023-05-12T19:50:25.669Z,101348.19
2023-05-12T19:52:30.444Z,101352.00
2023-05-12T19:54:32.457Z,101350.31
2023-05-12T19:56:34.037Z,101343.22
2023-05-12T19:58:35.690Z,101346.63
2023-05-12T20:00:39.200Z,101347.63
2023-05-12T20:02:41.590Z,101354.84
2023-05-12T20:04:43.838Z,101353.84
2023-05-12T20:06:45.572Z,101356.69
2023-05-12T20:08:47.255Z,101361.34
2023-05-12T20:10:48.820Z,101361.50
2023-05-12T20:12:51.544Z,101372.25
2023-05-12T20:14:53.102Z,101370.53
2023-05-12T20:16:55.641Z,101366.16
2023-05-12T20:18:57.396Z,101367.00
2023-05-12T20:20:59.294Z,101371.25
2023-05-12T20:23:00.857Z,101377.47
2023-05-12T20:25:04.535Z,101376.50
2023-05-12T20:27:06.174Z,101377.34
2023-05-12T20:29:07.688Z,101381.88
2023-05-12T20:31:10.140Z,101383.69
2023-05-12T20:33:11.900Z,101382.84
2023-05-12T20:35:13.547Z,101389.22
2023-05-12T20:37:15.741Z,101379.59
2023-05-12T20:39:18.350Z,101387.66
2023-05-12T20:41:20.188Z,101389.34
2023-05-12T20:43:21.850Z,101379.59
2023-05-12T20:45:23.679Z,101382.00
2023-05-12T20:47:25.621Z,101383.56
2023-05-12T20:49:27.347Z,101387.97
2023-05-12T20:51:28.978Z,101387.13
2023-05-12T20:53:30.699Z,101396.03
2023-05-12T20:55:33.102Z,101391.66
2023-05-12T20:57:38.733Z,101395.34
2023-05-12T20:59:40.655Z,101397.16
2023-05-12T21:01:42.452Z,101391.91
2023-05-12T21:03:44.369Z,101383.00
2023-05-12T21:05:48.112Z,101379.31
2023-05-12T21:07:49.763Z,101379.19
2023-05-12T21:09:51.429Z,101396.75
2023-05-12T21:11:53.386Z,101392.22
2023-05-12T21:13:54.961Z,101388.53
2023-05-12T21:15:56.769Z,101391.38
2023-05-12T21:17:58.844Z,101396.75
2023-05-12T21:20:00.535Z,101393.22
2023-05-12T21:22:03.854Z,101389.81
2023-05-12T21:24:05.909Z,101383.56
2023-05-12T21:26:10.318Z,101386.13
2023-05-12T21:28:12.062Z,101386.25
2023-05-12T21:30:14.008Z,101381.72
2023-05-12T21:32:17.016Z,101390.53
2023-05-12T21:34:18.710Z,101391.09
2023-05-12T21:36:20.278Z,101384.72
2023-05-12T21:38:21.888Z,101379.34
2023-05-12T21:40:23.635Z,101375.81
2023-05-12T21:42:27.791Z,101390.09
2023-05-12T21:44:29.849Z,101376.66
2023-05-12T21:46:31.969Z,101388.25
2023-05-12T21:48:33.594Z,101381.31
2023-05-12T21:50:35.363Z,101377.75
2023-05-12T21:52:37.113Z,101379.34
2023-05-12T21:54:38.798Z,101385.56
2023-05-12T21:56:40.621Z,101385.44
2023-05-12T21:58:42.812Z,101392.41
2023-05-12T22:00:44.486Z,101386.00
2023-05-12T22:02:47.690Z,101391.41
2023-05-12T22:04:49.332Z,101391.41
2023-05-12T22:06:50.952Z,101392.25
2023-05-12T22:08:53.858Z,101395.09
2023-05-12T22:10:56.394Z,101387.13
2023-05-12T22:12:58.070Z,101397.88
2023-05-12T22:15:00.086Z,101391.66
2023-05-12T22:17:02.460Z,101391.50
2023-05-12T22:19:04.611Z,101383.44
2023-05-12T22:21:06.410Z,101401.03
2023-05-12T22:23:08.216Z,101392.81
2023-05-12T22:25:10.017Z,101400.78
2023-05-12T22:27:11.618Z,101395.41
2023-05-12T22:29:13.268Z,101398.19
2023-05-12T22:31:15.134Z,101394.50
2023-05-12T22:33:17.078Z,101404.56
2023-05-12T22:35:18.731Z,101399.31
2023-05-12T22:37:20.835Z,101406.53
2023-05-12T22:39:22.406Z,101406.53
2023-05-12T22:41:24.114Z,101405.53
2023-05-12T22:43:26.268Z,101401.16
2023-05-12T22:45:28.011Z,101398.09
2023-05-12T22:47:31.612Z,101400.50
2023-05-12T22:49:33.220Z,101398.66
2023-05-12T22:51:34.857Z,101396.81
2023-05-12T22:53:36.618Z,101403.06
2023-05-12T22:55:38.129Z,101391.56
2023-05-12T22:57:40.808Z,101399.63
2023-05-12T22:59:42.456Z,101396.25
2023-05-12T23:01:44.546Z,101393.66
2023-05-12T23:03:46.553Z,101399.03
2023-05-12T23:05:48.350Z,101395.41
2023-05-12T23:07:49.906Z,101398.78
2023-05-12T23:09:51.758Z,101396.81
2023-05-12T23:11:53.309Z,101397.66
2023-05-12T23:13:54.976Z,101394.13
2023-05-12T23:15:56.536Z,101395.97
2023-05-12T23:17:58.165Z,101397.81
2023-05-12T23:19:59.731Z,101392.56
2023-05-12T23:22:01.385Z,101386.44
2023-05-12T23:24:03.079Z,101391.81
2023-05-12T23:26:04.678Z,101390.28